sensor_id;sensor_type;location;lat;lon;timestamp;P1;durP1;ratioP1;P2;durP2;ratioP2
52248;SDS011;38541;48.130;8.378;2023-02-01T00:02:10;1.50;;;1.40;;
52248;SDS011;38541;48.130;8.378;2023-02-01T00:04:37;1.73;;;1.63;;
52248;SDS011;38541;48.130;8.378;2023-02-01T00:07:03;1.52;;;1.42;;
52248;SDS011;38541;48.130;8.378;2023-02-01T00:09:30;2.60;;;2.40;;
52248;SDS011;38541;48.130;8.378;2023-02-01T00:11:56;1.58;;;1.48;;
52248;SDS011;38541;48.130;8.378;2023-02-01T00:14:25;1.35;;;1.30;;
52248;SDS011;38541;48.130;8.378;2023-02-01T00:16:52;1.38;;;1.27;;
52248;SDS011;38541;48.130;8.378;2023-02-01T00:19:18;1.60;;;1.50;;
52248;SDS011;38541;48.130;8.378;2023-02-01T00:21:44;1.38;;;1.27;;
52248;SDS011;38541;48.130;8.378;2023-02-01T00:24:11;1.58;;;1.40;;
52248;SDS011;38541;48.130;8.378;2023-02-01T00:26:40;1.67;;;1.58;;
52248;SDS011;38541;48.130;8.378;2023-02-01T00:29:10;3.10;;;1.42;;
52248;SDS011;38541;48.130;8.378;2023-02-01T00:31:42;1.63;;;1.48;;
52248;SDS011;38541;48.130;8.378;2023-02-01T00:34:11;2.15;;;1.95;;
52248;SDS011;38541;48.130;8.378;2023-02-01T00:36:39;2.10;;;2.00;;
52248;SDS011;38541;48.130;8.378;2023-02-01T00:39:06;2.03;;;1.83;;
52248;SDS011;38541;48.130;8.378;2023-02-01T00:41:33;1.88;;;1.77;;
52248;SDS011;38541;48.130;8.378;2023-02-01T00:43:59;2.28;;;2.08;;
52248;SDS011;38541;48.130;8.378;2023-02-01T00:46:28;1.75;;;1.65;;
52248;SDS011;38541;48.130;8.378;2023-02-01T00:48:56;2.08;;;1.90;;
52248;SDS011;38541;48.130;8.378;2023-02-01T00:51:24;2.45;;;1.92;;
52248;SDS011;38541;48.130;8.378;2023-02-01T00:53:54;2.28;;;2.08;;
52248;SDS011;38541;48.130;8.378;2023-02-01T00:56:21;2.38;;;2.17;;
52248;SDS011;38541;48.130;8.378;2023-02-01T00:58:49;2.72;;;2.30;;
52248;SDS011;38541;48.130;8.378;2023-02-01T01:03:44;1.90;;;1.70;;
52248;SDS011;38541;48.130;8.378;2023-02-01T01:06:20;1.95;;;1.85;;
52248;SDS011;38541;48.130;8.378;2023-02-01T01:08:50;2.53;;;2.17;;
52248;SDS011;38541;48.130;8.378;2023-02-01T01:11:19;2.75;;;2.00;;
52248;SDS011;38541;48.130;8.378;2023-02-01T01:13:49;1.90;;;1.80;;
52248;SDS011;38541;48.130;8.378;2023-02-01T01:16:18;1.95;;;1.85;;
52248;SDS011;38541;48.130;8.378;2023-02-01T01:18:46;2.40;;;2.20;;
52248;SDS011;38541;48.130;8.378;2023-02-01T01:21:14;3.08;;;2.28;;
52248;SDS011;38541;48.130;8.378;2023-02-01T01:23:41;2.28;;;2.00;;
52248;SDS011;38541;48.130;8.378;2023-02-01T01:26:09;2.30;;;2.10;;
52248;SDS011;38541;48.130;8.378;2023-02-01T01:28:39;1.83;;;1.73;;
52248;SDS011;38541;48.130;8.378;2023-02-01T01:31:09;1.90;;;1.80;;
52248;SDS011;38541;48.130;8.378;2023-02-01T01:33:37;1.85;;;1.75;;
52248;SDS011;38541;48.130;8.378;2023-02-01T01:36:04;2.17;;;1.60;;
52248;SDS011;38541;48.130;8.378;2023-02-01T01:38:32;1.50;;;1.40;;
52248;SDS011;38541;48.130;8.378;2023-02-01T01:40:58;1.80;;;1.67;;
52248;SDS011;38541;48.130;8.378;2023-02-01T01:43:25;1.77;;;1.67;;
52248;SDS011;38541;48.130;8.378;2023-02-01T01:45:54;1.63;;;1.52;;
52248;SDS011;38541;48.130;8.378;2023-02-01T01:48:24;2.10;;;1.90;;
52248;SDS011;38541;48.130;8.378;2023-02-01T01:50:57;3.10;;;2.40;;
52248;SDS011;38541;48.130;8.378;2023-02-01T01:53:33;2.30;;;2.10;;
52248;SDS011;38541;48.130;8.378;2023-02-01T01:56:06;2.60;;;2.10;;
52248;SDS011;38541;48.130;8.378;2023-02-01T01:58:33;2.00;;;1.67;;
52248;SDS011;38541;48.130;8.378;2023-02-01T02:01:00;1.75;;;1.65;;
52248;SDS011;38541;48.130;8.378;2023-02-01T02:03:28;1.70;;;1.60;;
52248;SDS011;38541;48.130;8.378;2023-02-01T02:06:00;2.47;;;1.73;;
52248;SDS011;38541;48.130;8.378;2023-02-01T02:08:29;1.90;;;1.75;;
52248;SDS011;38541;48.130;8.378;2023-02-01T02:10:55;1.95;;;1.77;;
52248;SDS011;38541;48.130;8.378;2023-02-01T02:13:32;2.20;;;2.00;;
52248;SDS011;38541;48.130;8.378;2023-02-01T02:16:14;1.85;;;1.75;;
52248;SDS011;38541;48.130;8.378;2023-02-01T02:21:32;2.28;;;2.17;;
52248;SDS011;38541;48.130;8.378;2023-02-01T02:26:56;3.15;;;2.40;;
52248;SDS011;38541;48.130;8.378;2023-02-01T02:29:47;3.25;;;2.50;;
52248;SDS011;38541;48.130;8.378;2023-02-01T02:32:32;4.57;;;2.78;;
52248;SDS011;38541;48.130;8.378;2023-02-01T02:38:05;1.80;;;1.70;;
52248;SDS011;38541;48.130;8.378;2023-02-01T02:43:23;2.87;;;2.60;;
52248;SDS011;38541;48.130;8.378;2023-02-01T02:46:21;2.25;;;2.08;;
52248;SDS011;38541;48.130;8.378;2023-02-01T02:51:49;2.03;;;1.83;;
52248;SDS011;38541;48.130;8.378;2023-02-01T02:54:40;2.13;;;1.92;;
52248;SDS011;38541;48.130;8.378;2023-02-01T02:57:25;2.20;;;2.00;;
52248;SDS011;38541;48.130;8.378;2023-02-01T03:00:16;2.15;;;1.98;;
52248;SDS011;38541;48.130;8.378;2023-02-01T03:03:04;2.05;;;1.70;;
52248;SDS011;38541;48.130;8.378;2023-02-01T03:05:51;1.70;;;1.60;;
52248;SDS011;38541;48.130;8.378;2023-02-01T03:16:17;2.03;;;1.83;;
52248;SDS011;38541;48.130;8.378;2023-02-01T03:22:01;1.65;;;1.55;;
52248;SDS011;38541;48.130;8.378;2023-02-01T03:24:39;1.40;;;1.30;;
52248;SDS011;38541;48.130;8.378;2023-02-01T03:27:19;1.25;;;1.20;;
52248;SDS011;38541;48.130;8.378;2023-02-01T03:29:59;1.38;;;1.27;;
52248;SDS011;38541;48.130;8.378;2023-02-01T03:32:34;1.52;;;1.33;;
52248;SDS011;38541;48.130;8.378;2023-02-01T03:41:13;1.20;;;1.08;;
52248;SDS011;38541;48.130;8.378;2023-02-01T03:46:43;1.35;;;1.25;;
52248;SDS011;38541;48.130;8.378;2023-02-01T03:49:21;1.52;;;1.42;;
52248;SDS011;38541;48.130;8.378;2023-02-01T03:51:52;1.10;;;1.10;;
52248;SDS011;38541;48.130;8.378;2023-02-01T03:54:22;1.55;;;1.45;;
52248;SDS011;38541;48.130;8.378;2023-02-01T03:56:51;0.90;;;0.90;;
52248;SDS011;38541;48.130;8.378;2023-02-01T03:59:20;1.35;;;1.25;;
52248;SDS011;38541;48.130;8.378;2023-02-01T04:01:47;1.13;;;1.02;;
52248;SDS011;38541;48.130;8.378;2023-02-01T04:04:13;1.20;;;1.10;;
52248;SDS011;38541;48.130;8.378;2023-02-01T04:06:49;1.13;;;1.03;;
52248;SDS011;38541;48.130;8.378;2023-02-01T04:09:16;1.10;;;1.10;;
52248;SDS011;38541;48.130;8.378;2023-02-01T04:11:43;1.20;;;1.10;;
52248;SDS011;38541;48.130;8.378;2023-02-01T04:14:10;0.90;;;0.90;;
52248;SDS011;38541;48.130;8.378;2023-02-01T04:16:36;2.33;;;1.08;;
52248;SDS011;38541;48.130;8.378;2023-02-01T04:19:03;1.02;;;1.00;;
52248;SDS011;38541;48.130;8.378;2023-02-01T04:21:29;1.02;;;1.02;;
52248;SDS011;38541;48.130;8.378;2023-02-01T04:23:56;1.20;;;1.10;;
52248;SDS011;38541;48.130;8.378;2023-02-01T04:26:22;0.90;;;0.90;;
52248;SDS011;38541;48.130;8.378;2023-02-01T04:28:49;1.95;;;1.00;;
52248;SDS011;38541;48.130;8.378;2023-02-01T04:31:16;0.95;;;0.95;;
52248;SDS011;38541;48.130;8.378;2023-02-01T04:33:43;1.20;;;1.13;;
52248;SDS011;38541;48.130;8.378;2023-02-01T04:36:10;1.30;;;1.30;;
52248;SDS011;38541;48.130;8.378;2023-02-01T04:38:37;1.40;;;1.30;;
52248;SDS011;38541;48.130;8.378;2023-02-01T04:41:03;1.00;;;1.00;;
52248;SDS011;38541;48.130;8.378;2023-02-01T04:43:30;1.40;;;1.30;;
52248;SDS011;38541;48.130;8.378;2023-02-01T04:45:56;1.30;;;1.20;;
52248;SDS011;38541;48.130;8.378;2023-02-01T04:48:23;1.63;;;1.35;;
52248;SDS011;38541;48.130;8.378;2023-02-01T04:50:50;2.90;;;1.35;;
52248;SDS011;38541;48.130;8.378;2023-02-01T04:53:17;1.40;;;1.30;;
52248;SDS011;38541;48.130;8.378;2023-02-01T04:55:43;1.50;;;1.40;;
52248;SDS011;38541;48.130;8.378;2023-02-01T04:58:10;1.73;;;1.20;;
52248;SDS011;38541;48.130;8.378;2023-02-01T05:00:37;1.80;;;1.60;;
52248;SDS011;38541;48.130;8.378;2023-02-01T05:03:03;1.58;;;1.48;;
52248;SDS011;38541;48.130;8.378;2023-02-01T05:05:30;1.40;;;1.15;;
52248;SDS011;38541;48.130;8.378;2023-02-01T05:07:57;1.35;;;1.25;;
52248;SDS011;38541;48.130;8.378;2023-02-01T05:10:24;1.42;;;1.20;;
52248;SDS011;38541;48.130;8.378;2023-02-01T05:12:50;6.65;;;1.70;;
52248;SDS011;38541;48.130;8.378;2023-02-01T05:15:52;2.35;;;1.77;;
52248;SDS011;38541;48.130;8.378;2023-02-01T05:18:18;2.08;;;1.85;;
52248;SDS011;38541;48.130;8.378;2023-02-01T05:20:45;1.85;;;1.70;;
52248;SDS011;38541;48.130;8.378;2023-02-01T05:23:11;1.20;;;1.20;;
52248;SDS011;38541;48.130;8.378;2023-02-01T05:25:38;1.33;;;1.23;;
52248;SDS011;38541;48.130;8.378;2023-02-01T05:28:04;1.63;;;1.52;;
52248;SDS011;38541;48.130;8.378;2023-02-01T05:30:31;2.63;;;1.48;;
52248;SDS011;38541;48.130;8.378;2023-02-01T05:32:58;1.60;;;1.50;;
52248;SDS011;38541;48.130;8.378;2023-02-01T05:35:25;1.70;;;1.60;;
52248;SDS011;38541;48.130;8.378;2023-02-01T05:37:51;1.88;;;1.52;;
52248;SDS011;38541;48.130;8.378;2023-02-01T05:40:18;4.57;;;2.15;;
52248;SDS011;38541;48.130;8.378;2023-02-01T05:42:44;1.73;;;1.63;;
52248;SDS011;38541;48.130;8.378;2023-02-01T05:45:11;1.60;;;1.50;;
52248;SDS011;38541;48.130;8.378;2023-02-01T05:47:37;2.65;;;1.75;;
52248;SDS011;38541;48.130;8.378;2023-02-01T05:50:04;1.52;;;1.40;;
52248;SDS011;38541;48.130;8.378;2023-02-01T05:52:31;1.88;;;1.58;;
52248;SDS011;38541;48.130;8.378;2023-02-01T05:54:58;1.63;;;1.52;;
52248;SDS011;38541;48.130;8.378;2023-02-01T05:57:25;2.25;;;1.30;;
52248;SDS011;38541;48.130;8.378;2023-02-01T05:59:52;1.30;;;1.20;;
52248;SDS011;38541;48.130;8.378;2023-02-01T06:02:18;1.58;;;1.42;;
52248;SDS011;38541;48.130;8.378;2023-02-01T06:04:45;1.38;;;1.23;;
52248;SDS011;38541;48.130;8.378;2023-02-01T06:07:11;3.47;;;1.83;;
52248;SDS011;38541;48.130;8.378;2023-02-01T06:09:38;1.70;;;1.60;;
52248;SDS011;38541;48.130;8.378;2023-02-01T06:12:04;4.25;;;2.10;;
52248;SDS011;38541;48.130;8.378;2023-02-01T06:14:31;1.92;;;1.77;;
52248;SDS011;38541;48.130;8.378;2023-02-01T06:16:57;1.73;;;1.60;;
52248;SDS011;38541;48.130;8.378;2023-02-01T06:19:25;1.73;;;1.50;;
52248;SDS011;38541;48.130;8.378;2023-02-01T06:21:51;1.60;;;1.50;;
52248;SDS011;38541;48.130;8.378;2023-02-01T06:24:18;2.28;;;1.30;;
52248;SDS011;38541;48.130;8.378;2023-02-01T06:26:44;1.38;;;1.25;;
52248;SDS011;38541;48.130;8.378;2023-02-01T06:29:11;1.83;;;1.50;;
52248;SDS011;38541;48.130;8.378;2023-02-01T06:31:38;2.65;;;1.58;;
52248;SDS011;38541;48.130;8.378;2023-02-01T06:34:06;1.50;;;1.10;;
52248;SDS011;38541;48.130;8.378;2023-02-01T06:36:32;1.73;;;1.42;;
52248;SDS011;38541;48.130;8.378;2023-02-01T06:38:58;2.72;;;1.58;;
52248;SDS011;38541;48.130;8.378;2023-02-01T06:41:26;3.55;;;1.85;;
52248;SDS011;38541;48.130;8.378;2023-02-01T06:43:54;1.50;;;1.40;;
52248;SDS011;38541;48.130;8.378;2023-02-01T06:46:21;1.60;;;1.50;;
52248;SDS011;38541;48.130;8.378;2023-02-01T06:48:48;1.95;;;1.77;;
52248;SDS011;38541;48.130;8.378;2023-02-01T06:51:22;1.73;;;1.50;;
52248;SDS011;38541;48.130;8.378;2023-02-01T06:53:50;1.70;;;1.60;;
52248;SDS011;38541;48.130;8.378;2023-02-01T06:56:17;3.20;;;1.67;;
52248;SDS011;38541;48.130;8.378;2023-02-01T06:58:45;1.60;;;1.50;;
52248;SDS011;38541;48.130;8.378;2023-02-01T07:01:12;2.08;;;1.65;;
52248;SDS011;38541;48.130;8.378;2023-02-01T07:03:39;1.42;;;1.33;;
52248;SDS011;38541;48.130;8.378;2023-02-01T07:06:06;1.42;;;1.33;;
52248;SDS011;38541;48.130;8.378;2023-02-01T07:08:34;1.75;;;1.38;;
52248;SDS011;38541;48.130;8.378;2023-02-01T07:11:06;1.65;;;1.38;;
52248;SDS011;38541;48.130;8.378;2023-02-01T07:13:34;1.05;;;1.02;;
52248;SDS011;38541;48.130;8.378;2023-02-01T07:16:01;1.92;;;1.33;;
52248;SDS011;38541;48.130;8.378;2023-02-01T07:18:29;1.95;;;1.20;;
52248;SDS011;38541;48.130;8.378;2023-02-01T07:20:56;1.38;;;1.02;;
52248;SDS011;38541;48.130;8.378;2023-02-01T07:23:23;1.77;;;1.45;;
52248;SDS011;38541;48.130;8.378;2023-02-01T07:25:54;1.35;;;1.27;;
52248;SDS011;38541;48.130;8.378;2023-02-01T07:28:25;2.35;;;1.50;;
52248;SDS011;38541;48.130;8.378;2023-02-01T07:30:52;1.50;;;1.40;;
52248;SDS011;38541;48.130;8.378;2023-02-01T07:33:19;1.85;;;1.40;;
52248;SDS011;38541;48.130;8.378;2023-02-01T07:35:48;1.70;;;1.58;;
52248;SDS011;38541;48.130;8.378;2023-02-01T07:38:16;1.58;;;1.45;;
52248;SDS011;38541;48.130;8.378;2023-02-01T07:40:43;2.08;;;1.40;;
52248;SDS011;38541;48.130;8.378;2023-02-01T07:43:10;1.80;;;1.20;;
52248;SDS011;38541;48.130;8.378;2023-02-01T07:45:36;1.67;;;1.40;;
52248;SDS011;38541;48.130;8.378;2023-02-01T07:48:03;1.75;;;1.23;;
52248;SDS011;38541;48.130;8.378;2023-02-01T07:50:30;2.88;;;1.48;;
52248;SDS011;38541;48.130;8.378;2023-02-01T07:52:59;1.33;;;1.23;;
52248;SDS011;38541;48.130;8.378;2023-02-01T07:55:27;2.28;;;1.60;;
52248;SDS011;38541;48.130;8.378;2023-02-01T07:57:56;2.38;;;1.70;;
52248;SDS011;38541;48.130;8.378;2023-02-01T08:00:23;2.20;;;2.00;;
52248;SDS011;38541;48.130;8.378;2023-02-01T08:03:08;1.65;;;1.35;;
52248;SDS011;38541;48.130;8.378;2023-02-01T08:05:35;1.70;;;1.35;;
52248;SDS011;38541;48.130;8.378;2023-02-01T08:08:03;1.50;;;1.38;;
52248;SDS011;38541;48.130;8.378;2023-02-01T08:10:30;1.92;;;1.75;;
52248;SDS011;38541;48.130;8.378;2023-02-01T08:12:59;2.63;;;1.70;;
52248;SDS011;38541;48.130;8.378;2023-02-01T08:15:29;4.63;;;2.00;;
52248;SDS011;38541;48.130;8.378;2023-02-01T08:17:56;2.17;;;1.33;;
52248;SDS011;38541;48.130;8.378;2023-02-01T08:20:24;1.63;;;1.52;;
52248;SDS011;38541;48.130;8.378;2023-02-01T08:22:54;1.58;;;1.42;;
52248;SDS011;38541;48.130;8.378;2023-02-01T08:25:21;1.45;;;1.35;;
52248;SDS011;38541;48.130;8.378;2023-02-01T08:27:49;2.67;;;1.80;;
52248;SDS011;38541;48.130;8.378;2023-02-01T08:30:16;3.38;;;1.90;;
52248;SDS011;38541;48.130;8.378;2023-02-01T08:32:43;1.52;;;1.10;;
52248;SDS011;38541;48.130;8.378;2023-02-01T08:35:09;3.22;;;1.73;;
52248;SDS011;38541;48.130;8.378;2023-02-01T08:37:36;2.35;;;1.58;;
52248;SDS011;38541;48.130;8.378;2023-02-01T08:40:03;4.60;;;2.20;;
52248;SDS011;38541;48.130;8.378;2023-02-01T08:42:30;2.10;;;1.88;;
52248;SDS011;38541;48.130;8.378;2023-02-01T08:45:15;2.28;;;1.65;;
52248;SDS011;38541;48.130;8.378;2023-02-01T08:47:42;6.28;;;2.95;;
52248;SDS011;38541;48.130;8.378;2023-02-01T08:50:09;6.65;;;2.20;;
52248;SDS011;38541;48.130;8.378;2023-02-01T08:52:36;4.72;;;2.40;;
52248;SDS011;38541;48.130;8.378;2023-02-01T08:55:03;2.28;;;1.98;;
52248;SDS011;38541;48.130;8.378;2023-02-01T08:57:31;3.92;;;1.90;;
52248;SDS011;38541;48.130;8.378;2023-02-01T08:59:58;7.85;;;3.25;;
52248;SDS011;38541;48.130;8.378;2023-02-01T09:02:26;6.07;;;2.83;;
52248;SDS011;38541;48.130;8.378;2023-02-01T09:04:53;3.63;;;2.95;;
52248;SDS011;38541;48.130;8.378;2023-02-01T09:07:20;4.70;;;2.58;;
52248;SDS011;38541;48.130;8.378;2023-02-01T09:09:46;2.95;;;2.35;;
52248;SDS011;38541;48.130;8.378;2023-02-01T09:12:13;3.45;;;2.70;;
52248;SDS011;38541;48.130;8.378;2023-02-01T09:14:39;3.45;;;2.42;;
52248;SDS011;38541;48.130;8.378;2023-02-01T09:17:06;2.63;;;1.85;;
52248;SDS011;38541;48.130;8.378;2023-02-01T09:19:32;4.43;;;2.67;;
52248;SDS011;38541;48.130;8.378;2023-02-01T09:21:59;4.28;;;2.20;;
52248;SDS011;38541;48.130;8.378;2023-02-01T09:24:25;6.28;;;2.83;;
52248;SDS011;38541;48.130;8.378;2023-02-01T09:26:52;2.45;;;2.25;;
52248;SDS011;38541;48.130;8.378;2023-02-01T09:29:18;2.47;;;2.25;;
52248;SDS011;38541;48.130;8.378;2023-02-01T09:31:45;3.83;;;2.60;;
52248;SDS011;38541;48.130;8.378;2023-02-01T09:34:28;5.25;;;2.70;;
52248;SDS011;38541;48.130;8.378;2023-02-01T09:36:54;4.45;;;2.25;;
52248;SDS011;38541;48.130;8.378;2023-02-01T09:39:21;5.40;;;3.17;;
52248;SDS011;38541;48.130;8.378;2023-02-01T09:44:25;3.03;;;1.90;;
52248;SDS011;38541;48.130;8.378;2023-02-01T09:47:19;4.68;;;2.38;;
52248;SDS011;38541;48.130;8.378;2023-02-01T09:49:55;2.05;;;1.77;;
52248;SDS011;38541;48.130;8.378;2023-02-01T09:52:48;4.40;;;2.35;;
52248;SDS011;38541;48.130;8.378;2023-02-01T09:55:41;1.90;;;1.70;;
52248;SDS011;38541;48.130;8.378;2023-02-01T10:01:18;3.17;;;2.05;;
52248;SDS011;38541;48.130;8.378;2023-02-01T10:03:48;2.17;;;1.70;;
52248;SDS011;38541;48.130;8.378;2023-02-01T10:06:30;3.45;;;2.50;;
52248;SDS011;38541;48.130;8.378;2023-02-01T10:12:14;3.38;;;1.95;;
52248;SDS011;38541;48.130;8.378;2023-02-01T10:20:26;3.25;;;1.98;;
52248;SDS011;38541;48.130;8.378;2023-02-01T10:23:09;1.67;;;1.58;;
52248;SDS011;38541;48.130;8.378;2023-02-01T10:28:49;2.65;;;2.03;;
52248;SDS011;38541;48.130;8.378;2023-02-01T10:31:18;1.92;;;1.73;;
52248;SDS011;38541;48.130;8.378;2023-02-01T10:33:48;2.17;;;1.73;;
52248;SDS011;38541;48.130;8.378;2023-02-01T10:36:34;3.55;;;1.75;;
52248;SDS011;38541;48.130;8.378;2023-02-01T10:39:02;2.55;;;1.70;;
52248;SDS011;38541;48.130;8.378;2023-02-01T10:41:31;2.38;;;1.55;;
52248;SDS011;38541;48.130;8.378;2023-02-01T10:44:01;2.72;;;2.10;;
52248;SDS011;38541;48.130;8.378;2023-02-01T10:46:33;2.70;;;1.77;;
52248;SDS011;38541;48.130;8.378;2023-02-01T10:49:00;2.58;;;1.92;;
52248;SDS011;38541;48.130;8.378;2023-02-01T10:51:41;4.65;;;2.00;;
52248;SDS011;38541;48.130;8.378;2023-02-01T10:54:14;2.17;;;1.98;;
52248;SDS011;38541;48.130;8.378;2023-02-01T10:56:44;4.35;;;2.22;;
52248;SDS011;38541;48.130;8.378;2023-02-01T10:59:20;2.58;;;1.80;;
52248;SDS011;38541;48.130;8.378;2023-02-01T11:01:50;5.38;;;2.72;;
52248;SDS011;38541;48.130;8.378;2023-02-01T11:04:25;5.35;;;2.50;;
52248;SDS011;38541;48.130;8.378;2023-02-01T11:06:53;3.90;;;2.17;;
52248;SDS011;38541;48.130;8.378;2023-02-01T11:09:34;2.50;;;2.10;;
52248;SDS011;38541;48.130;8.378;2023-02-01T11:12:07;5.18;;;2.05;;
52248;SDS011;38541;48.130;8.378;2023-02-01T11:14:49;2.67;;;1.80;;
52248;SDS011;38541;48.130;8.378;2023-02-01T11:19:59;2.33;;;2.10;;
52248;SDS011;38541;48.130;8.378;2023-02-01T11:22:27;2.25;;;2.05;;
52248;SDS011;38541;48.130;8.378;2023-02-01T11:24:55;4.80;;;1.98;;
52248;SDS011;38541;48.130;8.378;2023-02-01T11:27:23;2.40;;;1.88;;
52248;SDS011;38541;48.130;8.378;2023-02-01T11:29:55;2.38;;;1.88;;
52248;SDS011;38541;48.130;8.378;2023-02-01T11:32:27;2.15;;;2.00;;
52248;SDS011;38541;48.130;8.378;2023-02-01T11:34:59;2.42;;;2.20;;
52248;SDS011;38541;48.130;8.378;2023-02-01T11:37:30;3.20;;;2.20;;
52248;SDS011;38541;48.130;8.378;2023-02-01T11:40:01;1.77;;;1.50;;
52248;SDS011;38541;48.130;8.378;2023-02-01T11:46:00;2.33;;;1.65;;
52248;SDS011;38541;48.130;8.378;2023-02-01T11:48:30;1.42;;;1.27;;
52248;SDS011;38541;48.130;8.378;2023-02-01T11:54:05;2.53;;;1.85;;
52248;SDS011;38541;48.130;8.378;2023-02-01T11:59:53;3.55;;;2.47;;
52248;SDS011;38541;48.130;8.378;2023-02-01T12:02:45;4.85;;;2.67;;
52248;SDS011;38541;48.130;8.378;2023-02-01T12:05:32;4.25;;;2.10;;
52248;SDS011;38541;48.130;8.378;2023-02-01T12:13:58;4.18;;;2.70;;
52248;SDS011;38541;48.130;8.378;2023-02-01T12:16:45;4.60;;;2.45;;
52248;SDS011;38541;48.130;8.378;2023-02-01T12:27:38;10.77;;;4.78;;
52248;SDS011;38541;48.130;8.378;2023-02-01T12:32:56;4.78;;;2.70;;
52248;SDS011;38541;48.130;8.378;2023-02-01T12:38:08;9.95;;;3.20;;
52248;SDS011;38541;48.130;8.378;2023-02-01T12:43:23;6.40;;;2.80;;
52248;SDS011;38541;48.130;8.378;2023-02-01T12:46:35;5.60;;;2.63;;
52248;SDS011;38541;48.130;8.378;2023-02-01T12:49:10;7.15;;;3.03;;
52248;SDS011;38541;48.130;8.378;2023-02-01T12:51:41;5.60;;;3.22;;
52248;SDS011;38541;48.130;8.378;2023-02-01T12:54:13;6.10;;;2.80;;
52248;SDS011;38541;48.130;8.378;2023-02-01T12:59:21;5.30;;;2.95;;
52248;SDS011;38541;48.130;8.378;2023-02-01T13:01:57;7.70;;;3.40;;
52248;SDS011;38541;48.130;8.378;2023-02-01T13:04:34;3.20;;;2.72;;
52248;SDS011;38541;48.130;8.378;2023-02-01T13:07:11;5.45;;;3.22;;
52248;SDS011;38541;48.130;8.378;2023-02-01T13:09:45;6.50;;;3.60;;
52248;SDS011;38541;48.130;8.378;2023-02-01T13:12:24;8.52;;;3.08;;
52248;SDS011;38541;48.130;8.378;2023-02-01T13:15:00;6.05;;;3.13;;
52248;SDS011;38541;48.130;8.378;2023-02-01T13:17:32;4.43;;;2.50;;
52248;SDS011;38541;48.130;8.378;2023-02-01T13:22:39;6.25;;;2.75;;
52248;SDS011;38541;48.130;8.378;2023-02-01T13:27:36;6.55;;;3.17;;
52248;SDS011;38541;48.130;8.378;2023-02-01T13:30:06;4.25;;;3.08;;
52248;SDS011;38541;48.130;8.378;2023-02-01T13:41:32;12.50;;;5.72;;
52248;SDS011;38541;48.130;8.378;2023-02-01T13:44:14;6.15;;;3.22;;
52248;SDS011;38541;48.130;8.378;2023-02-01T13:46:46;6.80;;;2.70;;
52248;SDS011;38541;48.130;8.378;2023-02-01T13:49:20;8.40;;;3.28;;
52248;SDS011;38541;48.130;8.378;2023-02-01T13:51:53;3.65;;;2.50;;
52248;SDS011;38541;48.130;8.378;2023-02-01T13:54:30;9.32;;;3.70;;
52248;SDS011;38541;48.130;8.378;2023-02-01T13:57:00;7.10;;;3.55;;
52248;SDS011;38541;48.130;8.378;2023-02-01T14:24:01;5.97;;;3.25;;
52248;SDS011;38541;48.130;8.378;2023-02-01T14:26:49;6.82;;;3.17;;
52248;SDS011;38541;48.130;8.378;2023-02-01T14:29:26;4.85;;;2.83;;
52248;SDS011;38541;48.130;8.378;2023-02-01T14:34:55;4.25;;;3.05;;
52248;SDS011;38541;48.130;8.378;2023-02-01T14:37:32;4.80;;;3.08;;
52248;SDS011;38541;48.130;8.378;2023-02-01T14:42:38;9.75;;;4.25;;
52248;SDS011;38541;48.130;8.378;2023-02-01T14:47:49;6.47;;;3.92;;
52248;SDS011;38541;48.130;8.378;2023-02-01T14:53:06;7.43;;;3.83;;
52248;SDS011;38541;48.130;8.378;2023-02-01T14:58:36;13.93;;;4.50;;
52248;SDS011;38541;48.130;8.378;2023-02-01T15:01:21;6.78;;;3.45;;
52248;SDS011;38541;48.130;8.378;2023-02-01T15:04:04;5.38;;;2.83;;
52248;SDS011;38541;48.130;8.378;2023-02-01T15:09:29;6.30;;;2.97;;
52248;SDS011;38541;48.130;8.378;2023-02-01T15:11:59;6.32;;;3.72;;
52248;SDS011;38541;48.130;8.378;2023-02-01T15:14:36;8.40;;;3.25;;
52248;SDS011;38541;48.130;8.378;2023-02-01T15:17:16;7.45;;;3.67;;
52248;SDS011;38541;48.130;8.378;2023-02-01T15:19:53;8.75;;;3.55;;
52248;SDS011;38541;48.130;8.378;2023-02-01T15:22:39;8.40;;;3.33;;
52248;SDS011;38541;48.130;8.378;2023-02-01T15:25:17;6.03;;;3.00;;
52248;SDS011;38541;48.130;8.378;2023-02-01T15:27:46;10.02;;;3.60;;
52248;SDS011;38541;48.130;8.378;2023-02-01T15:30:18;8.00;;;3.55;;
52248;SDS011;38541;48.130;8.378;2023-02-01T15:32:46;9.77;;;3.78;;
52248;SDS011;38541;48.130;8.378;2023-02-01T15:35:36;8.02;;;3.70;;
52248;SDS011;38541;48.130;8.378;2023-02-01T15:38:19;7.38;;;3.60;;
52248;SDS011;38541;48.130;8.378;2023-02-01T15:40:56;8.98;;;4.13;;
52248;SDS011;38541;48.130;8.378;2023-02-01T15:43:26;9.05;;;3.92;;
52248;SDS011;38541;48.130;8.378;2023-02-01T15:45:58;9.50;;;3.60;;
52248;SDS011;38541;48.130;8.378;2023-02-01T15:48:26;8.70;;;5.13;;
52248;SDS011;38541;48.130;8.378;2023-02-01T15:51:02;5.80;;;3.92;;
52248;SDS011;38541;48.130;8.378;2023-02-01T15:53:29;8.13;;;3.97;;
52248;SDS011;38541;48.130;8.378;2023-02-01T15:55:59;9.65;;;3.83;;
52248;SDS011;38541;48.130;8.378;2023-02-01T15:58:27;8.68;;;2.95;;
52248;SDS011;38541;48.130;8.378;2023-02-01T16:00:56;8.02;;;3.38;;
52248;SDS011;38541;48.130;8.378;2023-02-01T16:03:26;5.95;;;3.63;;
52248;SDS011;38541;48.130;8.378;2023-02-01T16:06:03;10.30;;;3.47;;
52248;SDS011;38541;48.130;8.378;2023-02-01T16:08:32;8.48;;;2.78;;
52248;SDS011;38541;48.130;8.378;2023-02-01T16:11:12;5.93;;;3.05;;
52248;SDS011;38541;48.130;8.378;2023-02-01T16:13:51;4.88;;;2.63;;
52248;SDS011;38541;48.130;8.378;2023-02-01T16:16:17;4.78;;;3.20;;
52248;SDS011;38541;48.130;8.378;2023-02-01T16:18:44;7.18;;;3.40;;
52248;SDS011;38541;48.130;8.378;2023-02-01T16:21:11;6.65;;;3.53;;
52248;SDS011;38541;48.130;8.378;2023-02-01T16:23:38;6.50;;;3.17;;
52248;SDS011;38541;48.130;8.378;2023-02-01T16:26:04;7.20;;;3.45;;
52248;SDS011;38541;48.130;8.378;2023-02-01T16:28:32;5.57;;;3.25;;
52248;SDS011;38541;48.130;8.378;2023-02-01T16:30:59;4.88;;;3.13;;
52248;SDS011;38541;48.130;8.378;2023-02-01T16:33:26;10.93;;;4.03;;
52248;SDS011;38541;48.130;8.378;2023-02-01T16:35:54;6.70;;;3.33;;
52248;SDS011;38541;48.130;8.378;2023-02-01T16:38:23;4.72;;;2.95;;
52248;SDS011;38541;48.130;8.378;2023-02-01T16:40:50;6.78;;;3.58;;
52248;SDS011;38541;48.130;8.378;2023-02-01T16:43:23;5.32;;;3.05;;
52248;SDS011;38541;48.130;8.378;2023-02-01T16:45:51;7.30;;;3.17;;
52248;SDS011;38541;48.130;8.378;2023-02-01T16:48:25;7.20;;;4.07;;
52248;SDS011;38541;48.130;8.378;2023-02-01T16:51:03;10.32;;;3.47;;
52248;SDS011;38541;48.130;8.378;2023-02-01T16:53:35;3.90;;;3.20;;
52248;SDS011;38541;48.130;8.378;2023-02-01T16:56:20;8.35;;;3.63;;
52248;SDS011;38541;48.130;8.378;2023-02-01T16:58:48;5.53;;;3.67;;
52248;SDS011;38541;48.130;8.378;2023-02-01T17:01:16;7.53;;;3.40;;
52248;SDS011;38541;48.130;8.378;2023-02-01T17:03:44;6.78;;;3.08;;
52248;SDS011;38541;48.130;8.378;2023-02-01T17:06:13;7.00;;;3.30;;
52248;SDS011;38541;48.130;8.378;2023-02-01T17:08:44;7.47;;;3.75;;
52248;SDS011;38541;48.130;8.378;2023-02-01T17:11:13;6.35;;;2.97;;
52248;SDS011;38541;48.130;8.378;2023-02-01T17:13:40;5.60;;;3.60;;
52248;SDS011;38541;48.130;8.378;2023-02-01T17:16:19;14.90;;;3.35;;
52248;SDS011;38541;48.130;8.378;2023-02-01T17:18:58;6.72;;;3.78;;
52248;SDS011;38541;48.130;8.378;2023-02-01T17:21:30;4.97;;;3.22;;
52248;SDS011;38541;48.130;8.378;2023-02-01T17:24:04;4.25;;;3.72;;
52248;SDS011;38541;48.130;8.378;2023-02-01T17:26:31;5.00;;;3.67;;
52248;SDS011;38541;48.130;8.378;2023-02-01T17:28:57;7.45;;;4.25;;
52248;SDS011;38541;48.130;8.378;2023-02-01T17:31:24;5.72;;;3.97;;
52248;SDS011;38541;48.130;8.378;2023-02-01T17:33:50;7.82;;;4.10;;
52248;SDS011;38541;48.130;8.378;2023-02-01T17:36:16;8.95;;;4.97;;
52248;SDS011;38541;48.130;8.378;2023-02-01T17:38:43;8.32;;;3.88;;